ENBL/FDE METAR and TAF weather

Enter ICAO airport designator
Station Type Date Time Source
ENBL METAR 2019/08/24 14:50 UTC NOAA

ENBL 241450Z 21006KT 9999 FEW025 BKN030 16/14 Q1022


Station Type Date Time Source
ENBL Decoded METAR 2019/08/24 14:50 UTC NOAA

Station name not available
Aug 24, 2019 - 10:50 AM EDT / 2019.08.24 1450 UTC
Wind: from the SSW (210 degrees) at 7 MPH (6 KT):0
Visibility: greater than 7 mile(s):0
Sky conditions: mostly cloudy
Temperature: 60 F (16 C)
Dew Point: 57 F (14 C)
Relative Humidity: 87%
Pressure (altimeter): 30.18 in. Hg (1022 hPa)
ob: ENBL 241450Z 21006KT 9999 FEW025 BKN030 16/14 Q1022
cycle: 15

Station Type Date Time Source
ENBL TAF UTC NOAA

Error!

Example: see airport list